SPHI/CIX METAR and TAF weather

Enter ICAO airport designator
Station Type Date Time Source
SPHI METAR 2019/08/25 03:00 UTC NOAA

SPHI 250300Z 18012KT 9999 BKN010 16/14 Q1015 RMK PP000


Station Type Date Time Source
SPHI Decoded METAR 2019/08/25 03:00 UTC NOAA

Station name not available
Aug 24, 2019 - 11:00 PM EDT / 2019.08.25 0300 UTC
Wind: from the S (180 degrees) at 14 MPH (12 KT):0
Visibility: greater than 7 mile(s):0
Sky conditions: mostly cloudy
Temperature: 60 F (16 C)
Dew Point: 57 F (14 C)
Relative Humidity: 87%
Pressure (altimeter): 29.97 in. Hg (1015 hPa)
ob: SPHI 250300Z 18012KT 9999 BKN010 16/14 Q1015 RMK PP000
cycle: 3

Station Type Date Time Source
SPHI TAF 2019/08/24 18:33 UTC NOAA

TAF SPHI 241700Z 2418/2518 18008KT 9999 BKN017 TX23/2419Z TN15/2511Z
FM241900 19015KT 9999 SCT020
BECMG 2500/2502 OVC008
FM250600 17006KT 8000 OVC006
TEMPO 2510/2512 VRB04KT 4000 BR OVC005

Example: see airport list